Terminal Aerodrome Forecast
Issued by NWS

Home | Current Version | Previous Version | Text Only | Print | Product List | Glossary Off
Versions: 1 2 3 4 5 6 7 8 9 10 11 12 13 14 15 16 17 18

000
FTUS43 KMPX 141700
TAFRWF
TAF
KRWF 141720Z 1418/1518 34014G22KT P6SM SCT050
     FM150100 33008KT P6SM FEW060
     FM150300 32005KT P6SM SKC
     FM151600 16006KT P6SM SCT250=

USA.gov is the U.S. government's official web portal to all federal, state and local government web resources and services.